Hlavní strana
METAR-TAF:

METAR-TAF

Letiště :

Golden Triangle Regional Airport

Columbus / West Point / Starkville, Mississippi, Spojené státy americké

zeměpisná šířka: 33-27N, zeměpisná délka: 088-35W, výška: 80 m

Aktuální stav počasí

Zpráva byla vytvořena před 11 minutami, v 17:56 UTC
Severní vítr 11 kt s nárazy do 18 kt
Teplota 13°C
Vlhkost vzduchu 41%
Tlak 1025 hPa
Viditelnost: 16.1 km
Jasno

METAR: KGTR 151756Z 35011G18KT 10SM CLR 13/00 A3027 RMK AO2 SLP260 T01280000 10128 20017 58013

Čas: 12:07 (18:07 UTC)

Předpověď počasí

Zpráva byla vytvořena před 47 minutami, v 17:20 UTC
Předpověď platná od 15 v 18 UTC do 16 v 18 UTC
Severoseverovýchodní vítr 17 kt s nárazy do 20 kt
Viditelnost: 10 km
Jasno
Od 16 v 0000 UTC
Severní vítr 5 kt
Viditelnost: 10 km
Jasno

TAF: KGTR 151720Z 1518/1618 02017G20KT P6SM SKC FM160000 35005KT P6SM SKC

Stav a předpovědi počasí z více než 4 000 letišť (zprávy METAR a TAF).

Červené a žluté tečky na mapě představují dostupné meteorologické stanice.

Když kurzor umístíte na tečku, zobrazí se název stanice.

Pak kliknutím zobrazíte stav a předpověď počasí.

Chcete-li změnit mapu, kliknutím na zelené tlačítko se znaménkem +mapu přiblížíte, kliknutím na zelené tlačítko se znaménkem – mapu oddálíte a kliknutím na zelené šipky přejdete na sousední mapy.


METAR-TAF: